sensor_id;sensor_type;location;lat;lon;timestamp;P1;durP1;ratioP1;P2;durP2;ratioP2
51244;SDS011;37840;47.562;18.738;2024-01-30T00:02:24;18.35;;;13.45;;
51244;SDS011;37840;47.562;18.738;2024-01-30T00:04:49;18.10;;;12.95;;
51244;SDS011;37840;47.562;18.738;2024-01-30T00:07:15;21.48;;;13.43;;
51244;SDS011;37840;47.562;18.738;2024-01-30T00:09:41;20.50;;;13.73;;
51244;SDS011;37840;47.562;18.738;2024-01-30T00:12:07;20.80;;;13.07;;
51244;SDS011;37840;47.562;18.738;2024-01-30T00:14:33;20.37;;;13.65;;
51244;SDS011;37840;47.562;18.738;2024-01-30T00:16:59;18.45;;;12.70;;
51244;SDS011;37840;47.562;18.738;2024-01-30T00:19:25;18.77;;;13.35;;
51244;SDS011;37840;47.562;18.738;2024-01-30T00:21:51;18.75;;;12.45;;
51244;SDS011;37840;47.562;18.738;2024-01-30T00:24:17;18.95;;;12.73;;
51244;SDS011;37840;47.562;18.738;2024-01-30T00:26:43;21.20;;;13.82;;
51244;SDS011;37840;47.562;18.738;2024-01-30T00:29:09;21.27;;;12.45;;
51244;SDS011;37840;47.562;18.738;2024-01-30T00:31:35;21.65;;;12.68;;
51244;SDS011;37840;47.562;18.738;2024-01-30T00:34:00;17.42;;;11.88;;
51244;SDS011;37840;47.562;18.738;2024-01-30T00:36:26;19.67;;;12.98;;
51244;SDS011;37840;47.562;18.738;2024-01-30T00:38:55;16.75;;;11.63;;
51244;SDS011;37840;47.562;18.738;2024-01-30T00:41:21;15.50;;;11.43;;
51244;SDS011;37840;47.562;18.738;2024-01-30T00:43:47;16.40;;;12.05;;
51244;SDS011;37840;47.562;18.738;2024-01-30T00:46:13;17.10;;;11.25;;
51244;SDS011;37840;47.562;18.738;2024-01-30T00:48:39;17.10;;;12.68;;
51244;SDS011;37840;47.562;18.738;2024-01-30T00:51:05;20.52;;;13.05;;
51244;SDS011;37840;47.562;18.738;2024-01-30T00:53:31;20.02;;;12.95;;
51244;SDS011;37840;47.562;18.738;2024-01-30T00:55:57;19.90;;;14.40;;
51244;SDS011;37840;47.562;18.738;2024-01-30T00:58:23;22.92;;;14.35;;
51244;SDS011;37840;47.562;18.738;2024-01-30T01:00:49;19.87;;;13.55;;
51244;SDS011;37840;47.562;18.738;2024-01-30T01:03:15;22.55;;;15.68;;
51244;SDS011;37840;47.562;18.738;2024-01-30T01:05:41;21.83;;;14.70;;
51244;SDS011;37840;47.562;18.738;2024-01-30T01:08:07;23.02;;;15.68;;
51244;SDS011;37840;47.562;18.738;2024-01-30T01:10:33;21.17;;;13.82;;
51244;SDS011;37840;47.562;18.738;2024-01-30T01:12:59;21.45;;;14.05;;
51244;SDS011;37840;47.562;18.738;2024-01-30T01:15:25;20.58;;;13.73;;
51244;SDS011;37840;47.562;18.738;2024-01-30T01:17:51;18.62;;;12.82;;
51244;SDS011;37840;47.562;18.738;2024-01-30T01:20:17;19.23;;;13.82;;
51244;SDS011;37840;47.562;18.738;2024-01-30T01:22:42;19.05;;;13.13;;
51244;SDS011;37840;47.562;18.738;2024-01-30T01:25:08;19.08;;;12.77;;
51244;SDS011;37840;47.562;18.738;2024-01-30T01:27:36;20.80;;;13.82;;
51244;SDS011;37840;47.562;18.738;2024-01-30T01:30:07;18.43;;;13.60;;
51244;SDS011;37840;47.562;18.738;2024-01-30T01:32:35;21.83;;;13.30;;
51244;SDS011;37840;47.562;18.738;2024-01-30T01:35:02;18.73;;;13.23;;
51244;SDS011;37840;47.562;18.738;2024-01-30T01:37:28;19.05;;;12.70;;
51244;SDS011;37840;47.562;18.738;2024-01-30T01:39:54;18.50;;;12.63;;
51244;SDS011;37840;47.562;18.738;2024-01-30T01:42:20;19.35;;;12.60;;
51244;SDS011;37840;47.562;18.738;2024-01-30T01:44:46;17.98;;;12.32;;
51244;SDS011;37840;47.562;18.738;2024-01-30T01:47:11;14.82;;;11.10;;
51244;SDS011;37840;47.562;18.738;2024-01-30T01:49:38;18.12;;;12.75;;
51244;SDS011;37840;47.562;18.738;2024-01-30T01:52:04;16.55;;;11.82;;
51244;SDS011;37840;47.562;18.738;2024-01-30T01:54:30;16.58;;;12.15;;
51244;SDS011;37840;47.562;18.738;2024-01-30T01:56:57;19.12;;;11.85;;
51244;SDS011;37840;47.562;18.738;2024-01-30T01:59:23;18.30;;;12.10;;
51244;SDS011;37840;47.562;18.738;2024-01-30T02:01:49;16.25;;;11.43;;
51244;SDS011;37840;47.562;18.738;2024-01-30T02:04:17;17.23;;;11.07;;
51244;SDS011;37840;47.562;18.738;2024-01-30T02:06:43;17.33;;;10.65;;
51244;SDS011;37840;47.562;18.738;2024-01-30T02:09:09;16.65;;;11.43;;
51244;SDS011;37840;47.562;18.738;2024-01-30T02:11:35;18.12;;;11.65;;
51244;SDS011;37840;47.562;18.738;2024-01-30T02:14:02;19.10;;;12.50;;
51244;SDS011;37840;47.562;18.738;2024-01-30T02:16:29;16.48;;;10.93;;
51244;SDS011;37840;47.562;18.738;2024-01-30T02:18:55;15.20;;;11.12;;
51244;SDS011;37840;47.562;18.738;2024-01-30T02:21:21;16.30;;;11.38;;
51244;SDS011;37840;47.562;18.738;2024-01-30T02:23:47;15.82;;;10.75;;
51244;SDS011;37840;47.562;18.738;2024-01-30T02:26:14;14.23;;;11.10;;
51244;SDS011;37840;47.562;18.738;2024-01-30T02:28:40;16.52;;;11.57;;
51244;SDS011;37840;47.562;18.738;2024-01-30T02:31:06;18.08;;;12.05;;
51244;SDS011;37840;47.562;18.738;2024-01-30T02:33:32;15.32;;;10.93;;
51244;SDS011;37840;47.562;18.738;2024-01-30T02:35:58;16.80;;;11.23;;
51244;SDS011;37840;47.562;18.738;2024-01-30T02:38:24;17.48;;;10.95;;
51244;SDS011;37840;47.562;18.738;2024-01-30T02:40:52;16.00;;;11.48;;
51244;SDS011;37840;47.562;18.738;2024-01-30T02:43:18;17.33;;;10.48;;
51244;SDS011;37840;47.562;18.738;2024-01-30T02:45:44;15.98;;;10.68;;
51244;SDS011;37840;47.562;18.738;2024-01-30T02:48:10;18.05;;;11.77;;
51244;SDS011;37840;47.562;18.738;2024-01-30T02:50:36;15.85;;;11.20;;
51244;SDS011;37840;47.562;18.738;2024-01-30T02:53:02;16.62;;;12.00;;
51244;SDS011;37840;47.562;18.738;2024-01-30T02:55:28;18.30;;;11.18;;
51244;SDS011;37840;47.562;18.738;2024-01-30T02:57:54;17.35;;;11.35;;
51244;SDS011;37840;47.562;18.738;2024-01-30T03:00:20;16.70;;;10.68;;
51244;SDS011;37840;47.562;18.738;2024-01-30T03:02:46;18.87;;;12.13;;
51244;SDS011;37840;47.562;18.738;2024-01-30T03:05:12;15.65;;;11.38;;
51244;SDS011;37840;47.562;18.738;2024-01-30T03:07:38;12.93;;;10.68;;
51244;SDS011;37840;47.562;18.738;2024-01-30T03:10:04;16.70;;;11.82;;
51244;SDS011;37840;47.562;18.738;2024-01-30T03:12:31;17.02;;;11.70;;
51244;SDS011;37840;47.562;18.738;2024-01-30T03:14:58;19.80;;;11.35;;
51244;SDS011;37840;47.562;18.738;2024-01-30T03:17:24;15.50;;;11.50;;
51244;SDS011;37840;47.562;18.738;2024-01-30T03:19:50;16.15;;;11.85;;
51244;SDS011;37840;47.562;18.738;2024-01-30T03:22:16;15.98;;;11.63;;
51244;SDS011;37840;47.562;18.738;2024-01-30T03:24:42;16.90;;;12.13;;
51244;SDS011;37840;47.562;18.738;2024-01-30T03:27:09;16.42;;;11.57;;
51244;SDS011;37840;47.562;18.738;2024-01-30T03:29:35;17.27;;;11.70;;
51244;SDS011;37840;47.562;18.738;2024-01-30T03:32:01;17.05;;;11.52;;
51244;SDS011;37840;47.562;18.738;2024-01-30T03:34:27;20.17;;;12.25;;
51244;SDS011;37840;47.562;18.738;2024-01-30T03:36:53;20.50;;;13.65;;
51244;SDS011;37840;47.562;18.738;2024-01-30T03:39:19;18.62;;;12.15;;
51244;SDS011;37840;47.562;18.738;2024-01-30T03:41:45;16.85;;;12.32;;
51244;SDS011;37840;47.562;18.738;2024-01-30T03:44:11;16.95;;;12.13;;
51244;SDS011;37840;47.562;18.738;2024-01-30T03:46:37;18.73;;;12.57;;
51244;SDS011;37840;47.562;18.738;2024-01-30T03:49:03;20.62;;;13.13;;
51244;SDS011;37840;47.562;18.738;2024-01-30T03:51:28;19.45;;;12.10;;
51244;SDS011;37840;47.562;18.738;2024-01-30T03:53:55;22.92;;;13.02;;
51244;SDS011;37840;47.562;18.738;2024-01-30T03:56:21;17.65;;;11.75;;
51244;SDS011;37840;47.562;18.738;2024-01-30T03:58:47;16.75;;;11.40;;
51244;SDS011;37840;47.562;18.738;2024-01-30T04:01:16;19.58;;;12.70;;
51244;SDS011;37840;47.562;18.738;2024-01-30T04:03:42;16.75;;;11.70;;
51244;SDS011;37840;47.562;18.738;2024-01-30T04:06:09;15.05;;;11.45;;
51244;SDS011;37840;47.562;18.738;2024-01-30T04:08:35;17.12;;;12.98;;
51244;SDS011;37840;47.562;18.738;2024-01-30T04:11:04;18.25;;;12.73;;
51244;SDS011;37840;47.562;18.738;2024-01-30T04:13:33;18.73;;;12.18;;
51244;SDS011;37840;47.562;18.738;2024-01-30T04:16:00;18.67;;;12.80;;
51244;SDS011;37840;47.562;18.738;2024-01-30T04:18:28;18.05;;;12.73;;
51244;SDS011;37840;47.562;18.738;2024-01-30T04:20:55;20.58;;;12.77;;
51244;SDS011;37840;47.562;18.738;2024-01-30T04:23:21;20.92;;;14.07;;
51244;SDS011;37840;47.562;18.738;2024-01-30T04:25:47;19.90;;;13.23;;
51244;SDS011;37840;47.562;18.738;2024-01-30T04:28:13;18.30;;;12.93;;
51244;SDS011;37840;47.562;18.738;2024-01-30T04:30:39;20.95;;;14.27;;
51244;SDS011;37840;47.562;18.738;2024-01-30T04:33:05;18.83;;;13.02;;
51244;SDS011;37840;47.562;18.738;2024-01-30T04:35:31;18.25;;;12.77;;
51244;SDS011;37840;47.562;18.738;2024-01-30T04:37:57;20.88;;;13.65;;
51244;SDS011;37840;47.562;18.738;2024-01-30T04:40:23;18.12;;;13.05;;
51244;SDS011;37840;47.562;18.738;2024-01-30T04:42:49;19.85;;;13.60;;
51244;SDS011;37840;47.562;18.738;2024-01-30T04:45:15;19.17;;;13.48;;
51244;SDS011;37840;47.562;18.738;2024-01-30T04:47:41;21.20;;;13.30;;
51244;SDS011;37840;47.562;18.738;2024-01-30T04:50:07;21.15;;;14.70;;
51244;SDS011;37840;47.562;18.738;2024-01-30T04:52:34;20.25;;;13.15;;
51244;SDS011;37840;47.562;18.738;2024-01-30T04:55:00;20.37;;;13.05;;
51244;SDS011;37840;47.562;18.738;2024-01-30T04:57:26;20.10;;;13.65;;
51244;SDS011;37840;47.562;18.738;2024-01-30T04:59:52;19.08;;;13.75;;
51244;SDS011;37840;47.562;18.738;2024-01-30T05:02:18;18.92;;;12.98;;
51244;SDS011;37840;47.562;18.738;2024-01-30T05:04:44;18.15;;;12.57;;
51244;SDS011;37840;47.562;18.738;2024-01-30T05:07:10;17.65;;;11.93;;
51244;SDS011;37840;47.562;18.738;2024-01-30T05:09:38;18.95;;;13.00;;
51244;SDS011;37840;47.562;18.738;2024-01-30T05:12:04;20.73;;;12.52;;
51244;SDS011;37840;47.562;18.738;2024-01-30T05:14:31;19.20;;;12.95;;
51244;SDS011;37840;47.562;18.738;2024-01-30T05:16:57;18.37;;;11.95;;
51244;SDS011;37840;47.562;18.738;2024-01-30T05:19:22;19.15;;;12.20;;
51244;SDS011;37840;47.562;18.738;2024-01-30T05:21:49;18.87;;;13.05;;
51244;SDS011;37840;47.562;18.738;2024-01-30T05:24:15;19.05;;;12.45;;
51244;SDS011;37840;47.562;18.738;2024-01-30T05:26:41;18.00;;;13.13;;
51244;SDS011;37840;47.562;18.738;2024-01-30T05:29:07;18.30;;;11.85;;
51244;SDS011;37840;47.562;18.738;2024-01-30T05:31:33;16.70;;;12.52;;
51244;SDS011;37840;47.562;18.738;2024-01-30T05:34:00;16.50;;;12.37;;
51244;SDS011;37840;47.562;18.738;2024-01-30T05:36:26;18.15;;;12.73;;
51244;SDS011;37840;47.562;18.738;2024-01-30T05:38:52;18.05;;;12.85;;
51244;SDS011;37840;47.562;18.738;2024-01-30T05:41:18;18.65;;;13.23;;
51244;SDS011;37840;47.562;18.738;2024-01-30T05:43:44;18.15;;;12.00;;
51244;SDS011;37840;47.562;18.738;2024-01-30T05:46:10;18.55;;;12.50;;
51244;SDS011;37840;47.562;18.738;2024-01-30T05:48:36;19.37;;;12.30;;
51244;SDS011;37840;47.562;18.738;2024-01-30T05:51:02;23.87;;;13.75;;
51244;SDS011;37840;47.562;18.738;2024-01-30T05:53:29;17.37;;;12.32;;
51244;SDS011;37840;47.562;18.738;2024-01-30T05:55:55;20.12;;;12.80;;
51244;SDS011;37840;47.562;18.738;2024-01-30T05:58:21;18.52;;;12.35;;
51244;SDS011;37840;47.562;18.738;2024-01-30T06:00:47;19.55;;;12.85;;
51244;SDS011;37840;47.562;18.738;2024-01-30T06:03:13;18.40;;;12.48;;
51244;SDS011;37840;47.562;18.738;2024-01-30T06:05:39;17.90;;;11.60;;
51244;SDS011;37840;47.562;18.738;2024-01-30T06:08:05;21.05;;;13.48;;
51244;SDS011;37840;47.562;18.738;2024-01-30T06:10:31;20.70;;;13.88;;
51244;SDS011;37840;47.562;18.738;2024-01-30T06:12:57;20.33;;;13.40;;
51244;SDS011;37840;47.562;18.738;2024-01-30T06:15:23;21.62;;;14.25;;
51244;SDS011;37840;47.562;18.738;2024-01-30T06:17:49;22.25;;;16.12;;
51244;SDS011;37840;47.562;18.738;2024-01-30T06:20:15;29.00;;;17.40;;
51244;SDS011;37840;47.562;18.738;2024-01-30T06:22:41;24.20;;;14.75;;
51244;SDS011;37840;47.562;18.738;2024-01-30T06:25:07;21.45;;;14.10;;
51244;SDS011;37840;47.562;18.738;2024-01-30T06:27:33;23.02;;;15.13;;
51244;SDS011;37840;47.562;18.738;2024-01-30T06:29:59;22.15;;;15.50;;
51244;SDS011;37840;47.562;18.738;2024-01-30T06:32:25;22.50;;;16.35;;
51244;SDS011;37840;47.562;18.738;2024-01-30T06:34:51;26.33;;;15.93;;
51244;SDS011;37840;47.562;18.738;2024-01-30T06:37:17;27.15;;;17.98;;
51244;SDS011;37840;47.562;18.738;2024-01-30T06:39:43;26.60;;;17.67;;
51244;SDS011;37840;47.562;18.738;2024-01-30T06:42:09;26.10;;;16.83;;
51244;SDS011;37840;47.562;18.738;2024-01-30T06:44:36;26.73;;;15.55;;
51244;SDS011;37840;47.562;18.738;2024-01-30T06:47:02;23.45;;;16.02;;
51244;SDS011;37840;47.562;18.738;2024-01-30T06:49:28;22.23;;;15.68;;
51244;SDS011;37840;47.562;18.738;2024-01-30T06:51:54;21.27;;;15.57;;
51244;SDS011;37840;47.562;18.738;2024-01-30T06:54:20;28.70;;;17.42;;
51244;SDS011;37840;47.562;18.738;2024-01-30T06:56:46;20.65;;;16.08;;
51244;SDS011;37840;47.562;18.738;2024-01-30T06:59:12;21.48;;;16.35;;
51244;SDS011;37840;47.562;18.738;2024-01-30T07:01:38;24.02;;;16.15;;
51244;SDS011;37840;47.562;18.738;2024-01-30T07:04:04;23.62;;;15.48;;
51244;SDS011;37840;47.562;18.738;2024-01-30T07:06:29;19.48;;;14.63;;
51244;SDS011;37840;47.562;18.738;2024-01-30T07:08:55;19.05;;;14.93;;
51244;SDS011;37840;47.562;18.738;2024-01-30T07:11:21;23.02;;;16.75;;
51244;SDS011;37840;47.562;18.738;2024-01-30T07:13:52;20.48;;;14.68;;
51244;SDS011;37840;47.562;18.738;2024-01-30T07:16:18;17.42;;;13.62;;
51244;SDS011;37840;47.562;18.738;2024-01-30T07:18:44;19.45;;;13.13;;
51244;SDS011;37840;47.562;18.738;2024-01-30T07:21:11;18.83;;;14.27;;
51244;SDS011;37840;47.562;18.738;2024-01-30T07:23:37;18.62;;;14.18;;
51244;SDS011;37840;47.562;18.738;2024-01-30T07:26:04;16.40;;;12.68;;
51244;SDS011;37840;47.562;18.738;2024-01-30T07:28:32;17.98;;;12.30;;
51244;SDS011;37840;47.562;18.738;2024-01-30T07:30:58;18.20;;;12.85;;
51244;SDS011;37840;47.562;18.738;2024-01-30T07:33:25;21.20;;;16.20;;
51244;SDS011;37840;47.562;18.738;2024-01-30T07:35:52;23.08;;;16.95;;
51244;SDS011;37840;47.562;18.738;2024-01-30T07:38:18;21.55;;;15.95;;
51244;SDS011;37840;47.562;18.738;2024-01-30T07:40:44;23.12;;;18.10;;
51244;SDS011;37840;47.562;18.738;2024-01-30T07:43:10;27.17;;;19.30;;
51244;SDS011;37840;47.562;18.738;2024-01-30T07:45:36;24.00;;;18.12;;
51244;SDS011;37840;47.562;18.738;2024-01-30T07:48:05;23.65;;;18.75;;
51244;SDS011;37840;47.562;18.738;2024-01-30T07:50:31;22.87;;;19.33;;
51244;SDS011;37840;47.562;18.738;2024-01-30T07:52:59;22.83;;;17.30;;
51244;SDS011;37840;47.562;18.738;2024-01-30T07:55:25;22.92;;;19.58;;
51244;SDS011;37840;47.562;18.738;2024-01-30T07:57:57;24.50;;;19.35;;
51244;SDS011;37840;47.562;18.738;2024-01-30T08:00:24;26.37;;;19.60;;
51244;SDS011;37840;47.562;18.738;2024-01-30T08:02:50;23.60;;;18.80;;
51244;SDS011;37840;47.562;18.738;2024-01-30T08:05:19;27.15;;;18.83;;
51244;SDS011;37840;47.562;18.738;2024-01-30T08:07:48;24.52;;;19.25;;
51244;SDS011;37840;47.562;18.738;2024-01-30T08:10:15;25.52;;;18.48;;
51244;SDS011;37840;47.562;18.738;2024-01-30T08:12:41;25.52;;;19.87;;
51244;SDS011;37840;47.562;18.738;2024-01-30T08:15:07;22.02;;;16.52;;
51244;SDS011;37840;47.562;18.738;2024-01-30T08:17:33;19.37;;;16.40;;
51244;SDS011;37840;47.562;18.738;2024-01-30T08:19:59;22.98;;;16.25;;
51244;SDS011;37840;47.562;18.738;2024-01-30T08:22:25;20.15;;;16.00;;
51244;SDS011;37840;47.562;18.738;2024-01-30T08:24:51;19.42;;;14.90;;
51244;SDS011;37840;47.562;18.738;2024-01-30T08:27:17;20.65;;;15.43;;
51244;SDS011;37840;47.562;18.738;2024-01-30T08:29:43;20.23;;;14.18;;
51244;SDS011;37840;47.562;18.738;2024-01-30T08:32:10;20.62;;;14.38;;
51244;SDS011;37840;47.562;18.738;2024-01-30T08:34:36;17.02;;;13.43;;
51244;SDS011;37840;47.562;18.738;2024-01-30T08:37:02;17.73;;;13.20;;
51244;SDS011;37840;47.562;18.738;2024-01-30T08:39:28;18.10;;;13.60;;
51244;SDS011;37840;47.562;18.738;2024-01-30T08:41:54;16.65;;;12.98;;
51244;SDS011;37840;47.562;18.738;2024-01-30T08:44:20;19.37;;;13.45;;
51244;SDS011;37840;47.562;18.738;2024-01-30T08:46:46;16.55;;;12.82;;
51244;SDS011;37840;47.562;18.738;2024-01-30T08:49:13;17.15;;;13.02;;
51244;SDS011;37840;47.562;18.738;2024-01-30T08:51:39;17.70;;;13.40;;
51244;SDS011;37840;47.562;18.738;2024-01-30T08:54:05;21.02;;;13.62;;
51244;SDS011;37840;47.562;18.738;2024-01-30T08:56:31;18.77;;;13.52;;
51244;SDS011;37840;47.562;18.738;2024-01-30T08:58:57;16.58;;;12.70;;
51244;SDS011;37840;47.562;18.738;2024-01-30T09:01:23;18.80;;;13.82;;
51244;SDS011;37840;47.562;18.738;2024-01-30T09:03:49;16.90;;;12.75;;
51244;SDS011;37840;47.562;18.738;2024-01-30T09:06:15;20.52;;;14.02;;
51244;SDS011;37840;47.562;18.738;2024-01-30T09:08:41;19.48;;;13.68;;
51244;SDS011;37840;47.562;18.738;2024-01-30T09:11:13;18.25;;;11.88;;
51244;SDS011;37840;47.562;18.738;2024-01-30T09:13:39;15.00;;;11.25;;
51244;SDS011;37840;47.562;18.738;2024-01-30T09:16:05;17.50;;;11.85;;
51244;SDS011;37840;47.562;18.738;2024-01-30T09:18:32;17.05;;;11.93;;
51244;SDS011;37840;47.562;18.738;2024-01-30T09:20:58;17.65;;;12.05;;
51244;SDS011;37840;47.562;18.738;2024-01-30T09:23:24;17.33;;;12.37;;
51244;SDS011;37840;47.562;18.738;2024-01-30T09:25:53;21.12;;;13.05;;
51244;SDS011;37840;47.562;18.738;2024-01-30T09:28:19;18.67;;;12.30;;
51244;SDS011;37840;47.562;18.738;2024-01-30T09:30:45;19.20;;;12.52;;
51244;SDS011;37840;47.562;18.738;2024-01-30T09:33:11;17.75;;;12.90;;
51244;SDS011;37840;47.562;18.738;2024-01-30T09:35:37;19.65;;;13.10;;
51244;SDS011;37840;47.562;18.738;2024-01-30T09:38:03;20.15;;;13.27;;
51244;SDS011;37840;47.562;18.738;2024-01-30T09:40:29;20.30;;;12.77;;
51244;SDS011;37840;47.562;18.738;2024-01-30T09:42:55;18.50;;;13.25;;
51244;SDS011;37840;47.562;18.738;2024-01-30T09:45:25;18.37;;;13.45;;
51244;SDS011;37840;47.562;18.738;2024-01-30T09:47:52;21.92;;;14.65;;
51244;SDS011;37840;47.562;18.738;2024-01-30T09:50:18;18.37;;;13.80;;
51244;SDS011;37840;47.562;18.738;2024-01-30T09:52:45;20.88;;;14.35;;
51244;SDS011;37840;47.562;18.738;2024-01-30T09:55:13;22.13;;;13.75;;
51244;SDS011;37840;47.562;18.738;2024-01-30T09:57:39;19.62;;;13.30;;
51244;SDS011;37840;47.562;18.738;2024-01-30T10:00:06;20.65;;;13.77;;
51244;SDS011;37840;47.562;18.738;2024-01-30T10:02:37;19.62;;;12.98;;
51244;SDS011;37840;47.562;18.738;2024-01-30T10:05:04;19.80;;;13.68;;
51244;SDS011;37840;47.562;18.738;2024-01-30T10:07:31;19.58;;;14.07;;
51244;SDS011;37840;47.562;18.738;2024-01-30T10:09:57;21.52;;;14.10;;
51244;SDS011;37840;47.562;18.738;2024-01-30T10:12:23;19.58;;;13.38;;
51244;SDS011;37840;47.562;18.738;2024-01-30T10:14:51;22.80;;;14.77;;
51244;SDS011;37840;47.562;18.738;2024-01-30T10:17:17;21.75;;;14.50;;
51244;SDS011;37840;47.562;18.738;2024-01-30T10:19:45;21.50;;;14.55;;
51244;SDS011;37840;47.562;18.738;2024-01-30T10:22:11;20.10;;;14.10;;
51244;SDS011;37840;47.562;18.738;2024-01-30T10:24:37;22.25;;;14.77;;
51244;SDS011;37840;47.562;18.738;2024-01-30T10:27:05;19.55;;;14.70;;
51244;SDS011;37840;47.562;18.738;2024-01-30T10:29:31;21.67;;;14.35;;
51244;SDS011;37840;47.562;18.738;2024-01-30T10:32:01;21.23;;;14.57;;
51244;SDS011;37840;47.562;18.738;2024-01-30T10:34:28;21.05;;;14.55;;
51244;SDS011;37840;47.562;18.738;2024-01-30T10:37:05;25.58;;;15.85;;
51244;SDS011;37840;47.562;18.738;2024-01-30T10:39:38;21.52;;;14.02;;
51244;SDS011;37840;47.562;18.738;2024-01-30T10:42:06;19.55;;;14.27;;
51244;SDS011;37840;47.562;18.738;2024-01-30T10:44:37;21.77;;;15.63;;
51244;SDS011;37840;47.562;18.738;2024-01-30T10:47:11;18.87;;;13.62;;
51244;SDS011;37840;47.562;18.738;2024-01-30T10:52:12;20.80;;;14.38;;
51244;SDS011;37840;47.562;18.738;2024-01-30T10:54:40;23.25;;;14.60;;
51244;SDS011;37840;47.562;18.738;2024-01-30T10:57:09;22.60;;;16.33;;
51244;SDS011;37840;47.562;18.738;2024-01-30T10:59:36;24.80;;;16.60;;
51244;SDS011;37840;47.562;18.738;2024-01-30T11:02:03;23.95;;;15.70;;
51244;SDS011;37840;47.562;18.738;2024-01-30T11:04:55;26.17;;;16.95;;
51244;SDS011;37840;47.562;18.738;2024-01-30T11:07:28;24.58;;;16.08;;
51244;SDS011;37840;47.562;18.738;2024-01-30T11:12:24;27.33;;;17.17;;
51244;SDS011;37840;47.562;18.738;2024-01-30T11:15:08;27.75;;;17.20;;
51244;SDS011;37840;47.562;18.738;2024-01-30T11:17:42;28.83;;;17.25;;
51244;SDS011;37840;47.562;18.738;2024-01-30T11:20:19;27.10;;;16.87;;
51244;SDS011;37840;47.562;18.738;2024-01-30T11:22:48;25.37;;;16.67;;
51244;SDS011;37840;47.562;18.738;2024-01-30T11:25:17;24.45;;;14.95;;
51244;SDS011;37840;47.562;18.738;2024-01-30T11:27:45;22.08;;;14.27;;
51244;SDS011;37840;47.562;18.738;2024-01-30T11:30:22;24.30;;;14.68;;
51244;SDS011;37840;47.562;18.738;2024-01-30T11:33:01;24.80;;;16.17;;
51244;SDS011;37840;47.562;18.738;2024-01-30T11:35:32;21.87;;;13.88;;
51244;SDS011;37840;47.562;18.738;2024-01-30T11:37:59;21.67;;;15.10;;
51244;SDS011;37840;47.562;18.738;2024-01-30T11:40:27;20.98;;;13.70;;
51244;SDS011;37840;47.562;18.738;2024-01-30T11:42:55;25.00;;;15.38;;
51244;SDS011;37840;47.562;18.738;2024-01-30T11:45:21;19.90;;;13.80;;
51244;SDS011;37840;47.562;18.738;2024-01-30T11:47:47;20.27;;;13.38;;
51244;SDS011;37840;47.562;18.738;2024-01-30T11:50:14;22.40;;;15.98;;
51244;SDS011;37840;47.562;18.738;2024-01-30T11:52:41;22.15;;;15.55;;
51244;SDS011;37840;47.562;18.738;2024-01-30T11:55:07;21.05;;;14.52;;
51244;SDS011;37840;47.562;18.738;2024-01-30T11:57:33;19.67;;;13.75;;
51244;SDS011;37840;47.562;18.738;2024-01-30T12:00:01;20.42;;;14.38;;
51244;SDS011;37840;47.562;18.738;2024-01-30T12:02:29;21.52;;;14.32;;
51244;SDS011;37840;47.562;18.738;2024-01-30T12:04:55;24.85;;;16.42;;
51244;SDS011;37840;47.562;18.738;2024-01-30T12:07:21;21.83;;;15.05;;
51244;SDS011;37840;47.562;18.738;2024-01-30T12:09:54;21.83;;;14.95;;
51244;SDS011;37840;47.562;18.738;2024-01-30T12:12:21;23.90;;;15.90;;
51244;SDS011;37840;47.562;18.738;2024-01-30T12:14:49;23.45;;;15.38;;
51244;SDS011;37840;47.562;18.738;2024-01-30T12:17:31;21.77;;;14.05;;
51244;SDS011;37840;47.562;18.738;2024-01-30T12:22:38;19.37;;;12.90;;
51244;SDS011;37840;47.562;18.738;2024-01-30T12:25:04;21.12;;;14.77;;
51244;SDS011;37840;47.562;18.738;2024-01-30T12:27:34;19.73;;;13.55;;
51244;SDS011;37840;47.562;18.738;2024-01-30T12:30:00;21.08;;;13.02;;
51244;SDS011;37840;47.562;18.738;2024-01-30T12:32:26;20.20;;;12.65;;
51244;SDS011;37840;47.562;18.738;2024-01-30T12:34:55;20.30;;;13.93;;
51244;SDS011;37840;47.562;18.738;2024-01-30T12:37:22;19.40;;;13.30;;
51244;SDS011;37840;47.562;18.738;2024-01-30T12:39:53;23.90;;;14.57;;
51244;SDS011;37840;47.562;18.738;2024-01-30T12:42:19;23.33;;;15.13;;
51244;SDS011;37840;47.562;18.738;2024-01-30T12:44:47;20.75;;;13.30;;
51244;SDS011;37840;47.562;18.738;2024-01-30T12:47:14;19.35;;;12.90;;
51244;SDS011;37840;47.562;18.738;2024-01-30T12:49:42;22.50;;;14.15;;
51244;SDS011;37840;47.562;18.738;2024-01-30T12:52:13;22.62;;;14.50;;
51244;SDS011;37840;47.562;18.738;2024-01-30T12:54:42;23.95;;;13.62;;
51244;SDS011;37840;47.562;18.738;2024-01-30T12:57:08;19.67;;;14.13;;
51244;SDS011;37840;47.562;18.738;2024-01-30T12:59:34;20.80;;;13.52;;
51244;SDS011;37840;47.562;18.738;2024-01-30T13:02:00;25.30;;;15.05;;
51244;SDS011;37840;47.562;18.738;2024-01-30T13:04:27;24.12;;;14.30;;
51244;SDS011;37840;47.562;18.738;2024-01-30T13:06:53;23.02;;;14.95;;
51244;SDS011;37840;47.562;18.738;2024-01-30T13:09:19;24.45;;;15.63;;
51244;SDS011;37840;47.562;18.738;2024-01-30T13:11:47;25.02;;;14.95;;
51244;SDS011;37840;47.562;18.738;2024-01-30T13:14:13;25.60;;;15.80;;
51244;SDS011;37840;47.562;18.738;2024-01-30T13:16:39;23.42;;;12.93;;
51244;SDS011;37840;47.562;18.738;2024-01-30T13:19:05;26.35;;;15.55;;
51244;SDS011;37840;47.562;18.738;2024-01-30T13:21:31;24.45;;;13.98;;
51244;SDS011;37840;47.562;18.738;2024-01-30T13:23:57;23.05;;;13.77;;
51244;SDS011;37840;47.562;18.738;2024-01-30T13:26:23;22.58;;;13.57;;
51244;SDS011;37840;47.562;18.738;2024-01-30T13:28:49;22.92;;;13.75;;
51244;SDS011;37840;47.562;18.738;2024-01-30T13:31:15;22.40;;;14.38;;
51244;SDS011;37840;47.562;18.738;2024-01-30T13:33:41;29.58;;;15.77;;
51244;SDS011;37840;47.562;18.738;2024-01-30T13:36:08;22.65;;;13.25;;
51244;SDS011;37840;47.562;18.738;2024-01-30T13:38:35;20.95;;;13.62;;
51244;SDS011;37840;47.562;18.738;2024-01-30T13:41:01;20.48;;;13.48;;
51244;SDS011;37840;47.562;18.738;2024-01-30T13:43:28;20.10;;;12.82;;
51244;SDS011;37840;47.562;18.738;2024-01-30T13:45:54;21.67;;;13.55;;
51244;SDS011;37840;47.562;18.738;2024-01-30T13:48:20;20.17;;;12.93;;
51244;SDS011;37840;47.562;18.738;2024-01-30T13:50:47;22.62;;;13.23;;
51244;SDS011;37840;47.562;18.738;2024-01-30T13:53:13;19.25;;;12.20;;
51244;SDS011;37840;47.562;18.738;2024-01-30T13:55:39;19.12;;;11.98;;
51244;SDS011;37840;47.562;18.738;2024-01-30T13:58:06;17.17;;;11.90;;
51244;SDS011;37840;47.562;18.738;2024-01-30T14:00:32;17.48;;;10.68;;
51244;SDS011;37840;47.562;18.738;2024-01-30T14:02:59;17.67;;;10.75;;
51244;SDS011;37840;47.562;18.738;2024-01-30T14:05:26;17.83;;;11.85;;
51244;SDS011;37840;47.562;18.738;2024-01-30T14:07:55;19.15;;;12.02;;
51244;SDS011;37840;47.562;18.738;2024-01-30T14:10:23;22.70;;;11.95;;
51244;SDS011;37840;47.562;18.738;2024-01-30T14:12:49;16.73;;;11.98;;
51244;SDS011;37840;47.562;18.738;2024-01-30T14:15:15;19.42;;;13.70;;